Annette Island, AK

5:44 PM AKDT on May 26, 2015 (GMT -0800)
Annette Island | | Change Station
CLOSE
Current Station
Airport
Location: Annette Island,
Elevation: 112 ft
Nearby Weather Stations

Elev 112 ft 55.04 °N, 131.57 °W | Updated 51 minutes ago

Overcast
Overcast
64 °F
Feels Like 64 °F
N
5
Wind Variable Wind from Variable

Today
High -- | Low -- °F
--% Chance of Precip.
Yesterday
High -- | Low -- °F
Precip. -- in
4:21 AM 9:05 PM
Waxing Gibbous, 63% visible
Pressure 30.10 in
Visibility 10.0 miles
Clouds Few 4000 ft
Scattered Clouds 12000 ft
Mostly Cloudy 18000 ft
Overcast 24000 ft
Dew Point 52 °F
Humidity 65%
Rainfall 0.17 in
Snow Depth Not available.
UV 1 out of 12
Pollen Not available.
Air Quality Not available.
Flu Activity Local Activity
METAR PANT 270053Z VRB04KT 10SM FEW040 SCT120 BKN180 OVC240 18/11 A3010 RMK AO2 SLP192 T01780111

More Conditions Fewer Conditions

Pressure 30.10 in
Visibility 10.0 miles
Clouds Few 4000 ft
Scattered Clouds 12000 ft
Mostly Cloudy 18000 ft
Overcast 24000 ft
Dew Point 52 °F
Humidity 65%
Rainfall 0.17 in
Snow Depth Not available.
UV 1 out of 12
Pollen Not available.
Air Quality Not available.
Flu Activity Local Activity
METAR PANT 270053Z VRB04KT 10SM FEW040 SCT120 BKN180 OVC240 18/11 A3010 RMK AO2 SLP192 T01780111

More Conditions Fewer Conditions

10-Day Weather Forecast

Almanac

Astronomy

May. 26, 2015 Rise Set
Actual Time
Civil Twilight
Nautical Twilight
Astronomical Twilight
Moon
Length of Visible Light
Length of Day
Tomorrow will be .
, % of the Moon is Illuminated

Today's Extremes

State Highs State Lows

Community

WunderPhotos

Upload Photos

1,824,549 photos uploaded!

WunderBlogs® & News

Nearby

Air Quality

  Air Quality AQ Index Pollutant
Not available.

Snow Depth

Station Depth Elevation

Earthquake Activity

City Distance Mag. Time & Date
Minimum magnitude displayed is 2.5.

Coastal Water Temperatures

Place Temperature

Stations

Nearby Weather Stations

Station Location Temp. Windchill Dew Point Humidity Wind Precip. Elev Updated Type